Time;durP1;ratioP1;P1;durP2;ratioP2;P2;SDS_P1;SDS_P2;PMS_P1;PMS_P2;Temp;Humidity;BMP_temperature;BMP_pressure;BME280_temperature;BME280_humidity;BME280_pressure;Samples;Min_cycle;Max_cycle;Signal;HPM_P1;HPM_P2
2024/02/19 00:01:58;;;;;;;1999.90;999.90;;;21.00;99.90;;;;;;5116258;28;20161;-82
2024/02/19 00:04:27;;;;;;;1999.90;999.90;;;20.90;99.90;;;;;;5123431;28;20076;-82
2024/02/19 00:06:53;;;;;;;1999.90;999.90;;;20.90;99.90;;;;;;5090061;28;20037;-82
2024/02/19 00:09:19;;;;;;;1999.90;999.90;;;21.00;99.90;;;;;;5077194;28;20376;-83
2024/02/19 00:11:48;;;;;;;1999.90;999.90;;;21.00;99.90;;;;;;5095857;28;20115;-82
2024/02/19 00:14:14;;;;;;;1999.90;999.90;;;21.00;99.90;;;;;;5093898;28;20055;-82
2024/02/19 00:16:40;;;;;;;1999.90;999.90;;;21.00;99.90;;;;;;5095304;28;20059;-82
2024/02/19 00:19:06;;;;;;;1999.90;999.90;;;21.00;99.90;;;;;;5094963;28;20486;-82
2024/02/19 00:21:32;;;;;;;1999.90;999.90;;;21.00;99.90;;;;;;5096601;28;20024;-82
2024/02/19 00:23:58;;;;;;;1999.90;999.90;;;20.90;99.90;;;;;;5114695;28;20024;-82
2024/02/19 00:26:23;;;;;;;1999.90;999.90;;;20.90;99.90;;;;;;5116507;28;20486;-82
2024/02/19 00:28:49;;;;;;;1999.90;999.90;;;20.90;99.90;;;;;;5115309;28;20019;-82
2024/02/19 00:31:16;;;;;;;1999.90;999.90;;;20.90;99.90;;;;;;5115694;28;20023;-82
2024/02/19 00:33:42;;;;;;;1999.90;999.90;;;20.90;99.90;;;;;;5124178;28;20023;-83
2024/02/19 00:36:08;;;;;;;1999.90;999.90;;;20.90;99.90;;;;;;5114001;28;20059;-83
2024/02/19 00:38:34;;;;;;;1999.90;999.90;;;20.90;99.90;;;;;;5113791;28;20111;-82
2024/02/19 00:40:59;;;;;;;1999.90;999.90;;;20.90;99.90;;;;;;5104917;28;20417;-83
2024/02/19 00:43:25;;;;;;;1999.90;999.90;;;20.90;99.90;;;;;;5097377;28;20027;-82
2024/02/19 00:45:51;;;;;;;1999.90;999.90;;;20.90;99.90;;;;;;5115324;28;20085;-82
2024/02/19 00:48:17;;;;;;;1999.90;999.90;;;20.90;99.90;;;;;;5116583;28;20026;-83
2024/02/19 00:50:43;;;;;;;1999.90;999.90;;;20.90;99.90;;;;;;5096870;28;20107;-83
2024/02/19 00:53:08;;;;;;;1999.90;999.90;;;20.90;99.90;;;;;;5112737;28;20032;-82
2024/02/19 00:55:34;;;;;;;1999.90;999.90;;;20.90;99.90;;;;;;5118636;28;20034;-82
2024/02/19 00:58:00;;;;;;;1999.90;999.90;;;20.80;99.90;;;;;;5114757;28;20015;-82
2024/02/19 01:00:26;;;;;;;1999.90;999.90;;;20.80;99.90;;;;;;5096445;28;20027;-82
2024/02/19 01:02:53;;;;;;;1999.90;999.90;;;20.90;99.90;;;;;;5127987;28;20042;-83
2024/02/19 01:05:19;;;;;;;1999.90;999.90;;;20.80;99.90;;;;;;5114727;28;20166;-82
2024/02/19 01:07:45;;;;;;;1999.90;999.90;;;20.60;99.90;;;;;;5114020;27;20019;-82
2024/02/19 01:10:11;;;;;;;1999.90;999.90;;;20.50;99.90;;;;;;5116065;28;20082;-82
2024/02/19 01:12:38;;;;;;;1999.90;999.90;;;20.30;99.90;;;;;;5114874;28;20027;-82
2024/02/19 01:15:05;;;;;;;1999.90;999.90;;;20.20;99.90;;;;;;5096190;28;20024;-83
2024/02/19 01:17:30;;;;;;;1999.90;999.90;;;20.00;99.90;;;;;;5105929;28;20022;-82
2024/02/19 01:19:57;;;;;;;1999.90;999.90;;;19.90;99.90;;;;;;5095880;28;20114;-83
2024/02/19 01:22:24;;;;;;;1999.90;999.90;;;19.80;99.90;;;;;;5103997;28;20028;-83
2024/02/19 01:24:49;;;;;;;1999.90;999.90;;;19.70;99.90;;;;;;5109145;28;20024;-82
2024/02/19 01:27:15;;;;;;;1999.90;999.90;;;19.60;99.90;;;;;;5122944;28;20034;-83
2024/02/19 01:29:41;;;;;;;1999.90;999.90;;;19.50;99.90;;;;;;5112594;28;20394;-83
2024/02/19 01:32:06;;;;;;;1999.90;999.90;;;19.40;99.90;;;;;;5075751;28;20024;-83
2024/02/19 01:34:32;;;;;;;1999.90;999.90;;;19.30;99.90;;;;;;5097775;28;20019;-82
2024/02/19 01:36:57;;;;;;;1999.90;999.90;;;19.30;99.90;;;;;;5113921;28;20027;-82
2024/02/19 01:39:24;;;;;;;1999.90;999.90;;;19.20;99.90;;;;;;5114045;28;20474;-82
2024/02/19 01:41:49;;;;;;;1999.90;999.90;;;19.20;99.90;;;;;;5117885;28;20032;-83
2024/02/19 01:44:17;;;;;;;1999.90;999.90;;;19.20;99.90;;;;;;5095816;28;20023;-83
2024/02/19 01:46:44;;;;;;;1999.90;999.90;;;19.20;99.90;;;;;;5112687;28;20032;-82
2024/02/19 01:49:11;;;;;;;1999.90;999.90;;;19.10;99.90;;;;;;5120412;28;20034;-83
2024/02/19 01:51:38;;;;;;;1999.90;999.90;;;19.00;99.90;;;;;;5112620;28;20041;-83
2024/02/19 01:54:04;;;;;;;1999.90;999.90;;;19.00;99.90;;;;;;5112965;28;20027;-83
2024/02/19 01:56:30;;;;;;;1999.90;999.90;;;18.90;99.90;;;;;;5130811;28;20020;-82
2024/02/19 01:58:57;;;;;;;1999.90;999.90;;;18.80;99.90;;;;;;5122342;28;20485;-82
2024/02/19 02:01:25;;;;;;;1999.90;999.90;;;18.70;99.90;;;;;;5112653;28;20389;-82
2024/02/19 02:03:51;;;;;;;1999.90;999.90;;;18.60;99.90;;;;;;5112352;28;20028;-83
2024/02/19 02:06:17;;;;;;;1999.90;999.90;;;18.50;99.90;;;;;;5118492;28;20604;-82
2024/02/19 02:08:43;;;;;;;1999.90;999.90;;;18.60;99.90;;;;;;5112415;28;20062;-82
2024/02/19 02:11:09;;;;;;;1999.90;999.90;;;18.60;99.90;;;;;;5117122;28;20010;-83
2024/02/19 02:13:36;;;;;;;1999.90;999.90;;;18.60;99.90;;;;;;5115652;28;20493;-82
2024/02/19 02:16:03;;;;;;;1999.90;999.90;;;18.50;99.90;;;;;;5095258;28;20028;-82
2024/02/19 02:18:31;;;;;;;1999.90;999.90;;;18.50;99.90;;;;;;5101630;28;20091;-82
2024/02/19 02:20:58;;;;;;;1999.90;999.90;;;18.50;99.90;;;;;;5097575;28;20024;-83
2024/02/19 02:23:24;;;;;;;1999.90;999.90;;;18.30;99.90;;;;;;5113394;28;20026;-82
2024/02/19 02:25:50;;;;;;;1999.90;999.90;;;18.30;99.90;;;;;;5113428;28;20076;-82
2024/02/19 02:28:16;;;;;;;1999.90;999.90;;;18.30;99.90;;;;;;5099514;28;20507;-83
2024/02/19 02:30:41;;;;;;;1999.90;999.90;;;18.40;99.90;;;;;;5113832;28;20028;-82
2024/02/19 02:33:07;;;;;;;1999.90;999.90;;;18.40;99.90;;;;;;5112124;28;20110;-83
2024/02/19 02:35:33;;;;;;;1999.90;999.90;;;18.40;99.90;;;;;;5104559;28;20032;-83
2024/02/19 02:37:59;;;;;;;1999.90;999.90;;;18.40;99.90;;;;;;5113745;28;20016;-82
2024/02/19 02:40:26;;;;;;;1999.90;999.90;;;18.40;99.90;;;;;;5112170;28;20478;-83
2024/02/19 02:42:52;;;;;;;1999.90;999.90;;;18.40;99.90;;;;;;5134885;28;20026;-82
2024/02/19 02:45:17;;;;;;;1999.90;999.90;;;18.50;99.90;;;;;;5119179;28;20469;-83
2024/02/19 02:47:43;;;;;;;1999.90;999.90;;;18.60;99.90;;;;;;5095068;28;20024;-83
2024/02/19 02:50:09;;;;;;;1999.90;999.90;;;18.60;99.90;;;;;;5095013;28;20478;-83
2024/02/19 02:52:35;;;;;;;1999.90;999.90;;;18.70;99.90;;;;;;5100906;28;20040;-83
2024/02/19 02:55:00;;;;;;;1999.90;999.90;;;18.70;99.90;;;;;;5113403;28;20024;-83
2024/02/19 02:57:26;;;;;;;1999.90;999.90;;;18.80;99.90;;;;;;5095038;28;20016;-83
2024/02/19 02:59:52;;;;;;;1999.90;999.90;;;18.90;99.90;;;;;;5118979;28;20063;-82
2024/02/19 03:02:18;;;;;;;1999.90;999.90;;;19.00;99.90;;;;;;5094797;28;20494;-83
2024/02/19 03:04:43;;;;;;;1999.90;999.90;;;19.10;99.90;;;;;;5113260;28;20027;-83
2024/02/19 03:07:09;;;;;;;1999.90;999.90;;;19.20;99.90;;;;;;5125371;28;20024;-82
2024/02/19 03:09:35;;;;;;;1999.90;999.90;;;19.30;99.90;;;;;;5094658;28;20114;-82
2024/02/19 03:12:00;;;;;;;1999.90;999.90;;;19.30;99.90;;;;;;5113168;28;20059;-83
2024/02/19 03:14:26;;;;;;;1999.90;999.90;;;19.40;99.90;;;;;;5097021;28;20450;-83
2024/02/19 03:16:52;;;;;;;1999.90;999.90;;;19.50;99.90;;;;;;5106400;28;20047;-83
2024/02/19 03:19:19;;;;;;;1999.90;999.90;;;19.50;99.90;;;;;;5115469;28;20027;-83
2024/02/19 03:21:45;;;;;;;1999.90;999.90;;;19.50;99.90;;;;;;5116324;28;20038;-82
2024/02/19 03:24:10;;;;;;;1999.90;999.90;;;19.50;99.90;;;;;;5126903;28;20055;-83
2024/02/19 03:26:36;;;;;;;1999.90;999.90;;;19.50;99.90;;;;;;5116494;28;20027;-83
2024/02/19 03:29:11;;;;;;;1999.90;999.90;;;19.50;99.90;;;;;;5114981;28;20042;-83
2024/02/19 03:31:38;;;;;;;1999.90;999.90;;;19.60;99.90;;;;;;5123483;28;20008;-82
2024/02/19 03:34:03;;;;;;;1999.90;999.90;;;19.50;99.90;;;;;;5117052;28;20059;-83
2024/02/19 03:36:29;;;;;;;1999.90;999.90;;;19.50;99.90;;;;;;5115079;28;20074;-83
2024/02/19 03:38:54;;;;;;;1999.90;999.90;;;19.40;99.90;;;;;;5118692;28;20007;-83
2024/02/19 03:41:21;;;;;;;1999.90;999.90;;;19.40;99.90;;;;;;5099993;28;20027;-83
2024/02/19 03:43:47;;;;;;;1999.90;999.90;;;19.30;99.90;;;;;;5114948;28;20020;-83
2024/02/19 03:46:12;;;;;;;1999.90;999.90;;;19.30;99.90;;;;;;5123507;28;20018;-82
2024/02/19 03:48:38;;;;;;;1999.90;999.90;;;19.30;99.90;;;;;;5128576;28;20122;-83
2024/02/19 03:51:04;;;;;;;1999.90;999.90;;;19.20;99.90;;;;;;5116004;28;20024;-83
2024/02/19 03:53:30;;;;;;;1999.90;999.90;;;19.30;99.90;;;;;;5096678;28;20114;-83
2024/02/19 03:55:56;;;;;;;1999.90;999.90;;;19.20;99.90;;;;;;5117702;28;20063;-83
2024/02/19 03:58:23;;;;;;;1999.90;999.90;;;19.20;99.90;;;;;;5115756;28;20053;-83
2024/02/19 04:00:48;;;;;;;1999.90;999.90;;;19.20;99.90;;;;;;5096803;28;20456;-83
2024/02/19 04:03:16;;;;;;;1999.90;999.90;;;19.20;99.90;;;;;;5121618;28;20027;-83
2024/02/19 04:05:41;;;;;;;1999.90;999.90;;;19.20;99.90;;;;;;5114607;28;20537;-83
2024/02/19 04:08:08;;;;;;;1999.90;999.90;;;19.20;99.90;;;;;;5114492;28;20052;-83
2024/02/19 04:10:37;;;;;;;1999.90;999.90;;;19.20;99.90;;;;;;5128140;28;20024;-83
2024/02/19 04:13:03;;;;;;;1999.90;999.90;;;19.20;99.90;;;;;;5115853;28;20023;-83
2024/02/19 04:15:28;;;;;;;1999.90;999.90;;;19.30;99.90;;;;;;5114625;28;20062;-83
2024/02/19 04:17:54;;;;;;;1999.90;999.90;;;19.20;99.90;;;;;;5125307;28;20062;-82
2024/02/19 04:20:20;;;;;;;1999.90;999.90;;;19.20;99.90;;;;;;5123664;28;20482;-83
2024/02/19 04:22:45;;;;;;;1999.90;999.90;;;19.30;99.90;;;;;;5112602;28;20020;-83
2024/02/19 04:25:14;;;;;;;1999.90;999.90;;;19.30;99.90;;;;;;5094997;28;20028;-83
2024/02/19 04:27:40;;;;;;;1999.90;999.90;;;19.30;99.90;;;;;;5111377;28;20113;-83
2024/02/19 04:30:06;;;;;;;1999.90;999.90;;;19.30;99.90;;;;;;5114047;28;20050;-83
2024/02/19 04:32:31;;;;;;;1999.90;999.90;;;19.30;99.90;;;;;;5110819;28;20020;-83
2024/02/19 04:34:57;;;;;;;1999.90;999.90;;;19.30;99.90;;;;;;5097640;28;20024;-83
2024/02/19 04:37:24;;;;;;;1999.90;999.90;;;19.30;99.90;;;;;;5098779;28;20364;-83
2024/02/19 04:39:50;;;;;;;1999.90;999.90;;;19.40;99.90;;;;;;5094851;28;20024;-83
2024/02/19 04:42:15;;;;;;;1999.90;999.90;;;19.40;99.90;;;;;;5093423;28;20051;-83
2024/02/19 04:44:41;;;;;;;1999.90;999.90;;;19.40;99.90;;;;;;5095338;28;20043;-83
2024/02/19 04:47:07;;;;;;;1999.90;999.90;;;19.50;99.90;;;;;;5093455;28;20082;-83
2024/02/19 04:49:32;;;;;;;1999.90;999.90;;;19.50;99.90;;;;;;5093011;28;20051;-83
2024/02/19 04:51:58;;;;;;;1999.90;999.90;;;19.40;99.90;;;;;;5106003;28;20020;-83
2024/02/19 04:54:23;;;;;;;1999.90;999.90;;;19.40;99.90;;;;;;5093356;28;20056;-83
2024/02/19 04:56:49;;;;;;;1999.90;999.90;;;19.40;99.90;;;;;;5093270;28;20111;-83
2024/02/19 04:59:15;;;;;;;1999.90;999.90;;;19.40;99.90;;;;;;5109303;28;20091;-83
2024/02/19 05:01:40;;;;;;;1999.90;999.90;;;19.40;99.90;;;;;;5076266;28;20483;-83
2024/02/19 05:04:06;;;;;;;1999.90;999.90;;;19.40;99.90;;;;;;5094304;28;20028;-83
2024/02/19 05:06:31;;;;;;;1999.90;999.90;;;19.30;99.90;;;;;;5062848;28;20079;-83
2024/02/19 05:08:57;;;;;;;1999.90;999.90;;;19.30;99.90;;;;;;5055932;28;20506;-83
2024/02/19 05:11:23;;;;;;;1999.90;999.90;;;19.30;99.90;;;;;;5056101;28;20134;-83
2024/02/19 05:13:49;;;;;;;1999.90;999.90;;;19.30;99.90;;;;;;5069582;28;20043;-83
2024/02/19 05:16:14;;;;;;;1999.90;999.90;;;19.30;99.90;;;;;;5097279;28;20036;-83
2024/02/19 05:18:40;;;;;;;1999.90;999.90;;;19.30;99.90;;;;;;5076005;28;20046;-83
2024/02/19 05:21:06;;;;;;;1999.90;999.90;;;19.30;99.90;;;;;;5083448;28;20027;-82
2024/02/19 05:23:32;;;;;;;1999.90;999.90;;;19.30;99.90;;;;;;5074238;28;20052;-83
2024/02/19 05:25:58;;;;;;;1999.90;999.90;;;19.30;99.90;;;;;;5073417;28;20108;-83
2024/02/19 05:28:24;;;;;;;1999.90;999.90;;;19.30;99.90;;;;;;5057731;28;20029;-83
2024/02/19 05:30:50;;;;;;;1999.90;999.90;;;19.20;99.90;;;;;;5056024;28;20032;-83
2024/02/19 05:33:18;;;;;;;1999.90;999.90;;;19.20;99.90;;;;;;5064661;28;20057;-83
2024/02/19 05:35:45;;;;;;;1999.90;999.90;;;19.20;99.90;;;;;;5078773;28;20043;-83
2024/02/19 05:38:12;;;;;;;1999.90;999.90;;;19.20;99.90;;;;;;5077911;28;20404;-83
2024/02/19 05:40:38;;;;;;;1999.90;999.90;;;19.30;99.90;;;;;;5074213;28;20403;-83
2024/02/19 05:43:04;;;;;;;1999.90;999.90;;;19.30;99.90;;;;;;5098529;28;20012;-83
2024/02/19 05:45:30;;;;;;;1999.90;999.90;;;19.30;99.90;;;;;;5102015;28;20114;-83
2024/02/19 05:47:56;;;;;;;1999.90;999.90;;;19.30;99.90;;;;;;5093691;28;20063;-83
2024/02/19 05:50:22;;;;;;;1999.90;999.90;;;19.30;99.90;;;;;;5075421;28;20031;-83
2024/02/19 05:52:47;;;;;;;1999.90;999.90;;;19.20;99.90;;;;;;5094334;28;20031;-83
2024/02/19 05:55:13;;;;;;;1999.90;999.90;;;19.20;99.90;;;;;;5075296;28;20039;-83
2024/02/19 05:57:39;;;;;;;1999.90;999.90;;;19.20;99.90;;;;;;5081580;28;20292;-83
2024/02/19 06:00:06;;;;;;;1999.90;999.90;;;19.20;99.90;;;;;;5078333;28;20070;-83
2024/02/19 06:02:32;;;;;;;1999.90;999.90;;;19.20;99.90;;;;;;5075264;28;20021;-83
2024/02/19 06:04:58;;;;;;;1999.90;999.90;;;19.20;99.90;;;;;;5076584;28;20028;-83
2024/02/19 06:07:24;;;;;;;1999.90;999.90;;;19.20;99.90;;;;;;5100494;28;20382;-82
2024/02/19 06:09:49;;;;;;;1999.90;999.90;;;19.20;99.90;;;;;;5095380;28;20031;-83
2024/02/19 06:12:15;;;;;;;1999.90;999.90;;;19.20;99.90;;;;;;5113877;28;20034;-83
2024/02/19 06:14:41;;;;;;;1999.90;999.90;;;19.20;99.90;;;;;;5123564;28;20073;-83
2024/02/19 06:17:07;;;;;;;1999.90;999.90;;;19.20;99.90;;;;;;5084617;28;20111;-83
2024/02/19 06:19:33;;;;;;;1999.90;999.90;;;19.20;99.90;;;;;;5074895;28;20120;-83
2024/02/19 06:21:58;;;;;;;1999.90;999.90;;;19.20;99.90;;;;;;5076639;28;20402;-83
2024/02/19 06:24:24;;;;;;;1999.90;999.90;;;19.20;99.90;;;;;;5093048;28;20020;-83
2024/02/19 06:26:49;;;;;;;1999.90;999.90;;;19.30;99.90;;;;;;5075058;28;20028;-83
2024/02/19 06:29:15;;;;;;;1999.90;999.90;;;19.20;99.90;;;;;;5096331;28;20119;-83
2024/02/19 06:31:44;;;;;;;1999.90;999.90;;;19.20;99.90;;;;;;5093177;28;20028;-83
2024/02/19 06:34:09;;;;;;;1999.90;999.90;;;19.20;99.90;;;;;;5093106;28;20043;-83
2024/02/19 06:36:35;;;;;;;1999.90;999.90;;;19.20;99.90;;;;;;5102263;28;20134;-83
2024/02/19 06:39:01;;;;;;;1999.90;999.90;;;19.20;99.90;;;;;;5094035;28;20035;-83
2024/02/19 06:41:27;;;;;;;1999.90;999.90;;;19.20;99.90;;;;;;5095457;28;20027;-83
2024/02/19 06:43:56;;;;;;;1999.90;999.90;;;19.20;99.90;;;;;;5114484;28;20034;-83
2024/02/19 06:46:22;;;;;;;1999.90;999.90;;;19.20;99.90;;;;;;5093783;28;20027;-83
2024/02/19 06:48:47;;;;;;;1999.90;999.90;;;19.20;99.90;;;;;;5110751;28;20045;-83
2024/02/19 06:51:13;;;;;;;1999.90;999.90;;;19.20;99.90;;;;;;5122322;27;20414;-83
2024/02/19 06:53:38;;;;;;;1999.90;999.90;;;19.20;99.90;;;;;;5113436;27;20023;-83
2024/02/19 06:56:08;;;;;;;1999.90;999.90;;;19.30;99.90;;;;;;5089642;28;20024;-83
2024/02/19 06:58:33;;;;;;;1999.90;999.90;;;19.20;99.90;;;;;;5098821;28;20015;-83
2024/02/19 07:00:59;;;;;;;1999.90;999.90;;;19.20;99.90;;;;;;5098079;28;20505;-83
2024/02/19 07:03:24;;;;;;;1999.90;999.90;;;19.20;99.90;;;;;;5097907;28;20028;-83
2024/02/19 07:05:50;;;;;;;1999.90;999.90;;;19.20;99.90;;;;;;5113980;28;20131;-82
2024/02/19 07:08:16;;;;;;;1999.90;999.90;;;19.20;99.90;;;;;;5074371;28;20060;-83
2024/02/19 07:10:42;;;;;;;1999.90;999.90;;;19.20;99.90;;;;;;5073833;28;20020;-83
2024/02/19 07:13:07;;;;;;;1999.90;999.90;;;19.20;99.90;;;;;;5098001;28;20041;-82
2024/02/19 07:15:33;;;;;;;1999.90;999.90;;;19.10;99.90;;;;;;5098891;28;20033;-82
2024/02/19 07:17:58;;;;;;;1999.90;999.90;;;19.20;99.90;;;;;;5058523;28;20029;-84
2024/02/19 07:20:24;;;;;;;1999.90;999.90;;;19.30;99.90;;;;;;5093686;28;20027;-82
2024/02/19 07:22:50;;;;;;;1999.90;999.90;;;19.20;99.90;;;;;;5068705;28;20028;-82
2024/02/19 07:25:15;;;;;;;1999.90;999.90;;;19.30;99.90;;;;;;5069784;28;20032;-83
2024/02/19 07:27:41;;;;;;;1999.90;999.90;;;19.30;99.90;;;;;;5059009;28;20396;-82
2024/02/19 07:30:09;;;;;;;1999.90;999.90;;;19.30;99.90;;;;;;5057579;28;20021;-82
2024/02/19 07:32:34;;;;;;;1999.90;999.90;;;19.40;99.90;;;;;;5077776;28;20495;-77
2024/02/19 07:35:00;;;;;;;1999.90;999.90;;;19.40;99.90;;;;;;5083384;28;20024;-76
2024/02/19 07:37:26;;;;;;;1999.90;999.90;;;19.30;99.90;;;;;;5059384;28;20043;-76
2024/02/19 07:39:52;;;;;;;1999.90;999.90;;;19.30;99.90;;;;;;5074337;28;20028;-78
2024/02/19 07:42:17;;;;;;;1999.90;999.90;;;19.40;99.90;;;;;;5098521;28;20024;-75
2024/02/19 07:44:44;;;;;;;1999.90;999.90;;;19.50;99.90;;;;;;5107337;28;20038;-77
2024/02/19 07:47:09;;;;;;;1999.90;999.90;;;19.40;99.90;;;;;;5108487;28;20039;-77
2024/02/19 07:49:35;;;;;;;1999.90;999.90;;;19.30;99.90;;;;;;5092367;28;20042;-74
2024/02/19 07:52:01;;;;;;;1999.90;999.90;;;19.40;99.90;;;;;;5066535;28;20032;-77
2024/02/19 07:54:27;;;;;;;1999.90;999.90;;;19.30;99.90;;;;;;5090154;28;20438;-78
2024/02/19 07:56:52;;;;;;;1999.90;999.90;;;19.40;99.90;;;;;;5089803;28;20027;-76
2024/02/19 07:59:19;;;;;;;1999.90;999.90;;;19.40;99.90;;;;;;5082844;28;20102;-79
2024/02/19 08:01:45;;;;;;;1999.90;999.90;;;19.40;99.90;;;;;;5080746;28;20047;-76
2024/02/19 08:04:11;;;;;;;1999.90;999.90;;;19.40;99.90;;;;;;5085489;28;20068;-74
2024/02/19 08:06:36;;;;;;;1999.90;999.90;;;19.40;99.90;;;;;;5082121;28;20040;-78
2024/02/19 08:09:04;;;;;;;1999.90;999.90;;;19.40;99.90;;;;;;5081736;28;20034;-78
2024/02/19 08:11:30;;;;;;;1999.90;999.90;;;19.30;99.90;;;;;;5084778;28;20032;-76
2024/02/19 08:13:56;;;;;;;1999.90;999.90;;;19.20;99.90;;;;;;5071723;28;20059;-77
2024/02/19 08:16:22;;;;;;;1999.90;999.90;;;19.20;99.90;;;;;;5068157;28;20043;-76
2024/02/19 08:18:48;;;;;;;1999.90;999.90;;;19.20;99.90;;;;;;5092278;28;20020;-76
2024/02/19 08:21:14;;;;;;;1999.90;999.90;;;19.10;99.90;;;;;;5084744;28;20123;-81
2024/02/19 08:23:39;;;;;;;1999.90;999.90;;;19.10;99.90;;;;;;5085551;28;20035;-76
2024/02/19 08:26:05;;;;;;;1999.90;999.90;;;19.00;99.90;;;;;;5066250;28;20490;-79
2024/02/19 08:28:31;;;;;;;1999.90;999.90;;;19.00;99.90;;;;;;5078851;28;20497;-79
2024/02/19 08:30:57;;;;;;;1999.90;999.90;;;19.00;99.90;;;;;;5080665;28;20477;-79
2024/02/19 08:33:22;;;;;;;1999.90;999.90;;;18.90;99.90;;;;;;5082724;28;20024;-78
2024/02/19 08:35:50;;;;;;;1999.90;999.90;;;19.00;99.90;;;;;;5061863;28;20082;-78
2024/02/19 08:38:15;;;;;;;1999.90;999.90;;;19.10;99.90;;;;;;5091263;28;20421;-79
2024/02/19 08:40:41;;;;;;;1999.90;999.90;;;19.20;99.90;;;;;;5085425;28;20021;-77
2024/02/19 08:43:10;;;;;;;1999.90;999.90;;;19.20;99.90;;;;;;5073272;28;20031;-77
2024/02/19 08:45:36;;;;;;;1999.90;999.90;;;19.20;99.90;;;;;;5083128;28;20563;-77
2024/02/19 08:48:02;;;;;;;1999.90;999.90;;;19.30;99.90;;;;;;5080287;28;20012;-77
2024/02/19 08:50:27;;;;;;;1999.90;999.90;;;19.30;99.90;;;;;;5080094;28;20043;-75
2024/02/19 08:52:53;;;;;;;1999.90;999.90;;;19.30;99.90;;;;;;5096752;28;20016;-76
2024/02/19 08:55:18;;;;;;;1999.90;999.90;;;19.20;99.90;;;;;;5089946;28;20387;-73
2024/02/19 08:57:44;;;;;;;1999.90;999.90;;;19.00;99.90;;;;;;5089657;28;20031;-75
2024/02/19 09:00:11;;;;;;;1999.90;999.90;;;18.90;99.90;;;;;;5069109;28;20050;-75
2024/02/19 09:02:38;;;;;;;1999.90;999.90;;;18.80;99.90;;;;;;5081994;28;20044;-74
2024/02/19 09:05:04;;;;;;;1999.90;999.90;;;18.70;99.90;;;;;;5067452;28;20487;-73
2024/02/19 09:07:31;;;;;;;1999.90;999.90;;;18.50;99.90;;;;;;5063572;28;20043;-75
2024/02/19 09:09:57;;;;;;;1999.90;999.90;;;18.40;99.90;;;;;;5083123;28;20020;-75
2024/02/19 09:12:23;;;;;;;1999.90;999.90;;;18.20;99.90;;;;;;5079286;28;20032;-74
2024/02/19 09:14:49;;;;;;;1999.90;999.90;;;18.10;99.90;;;;;;5080883;28;20012;-80
2024/02/19 09:17:15;;;;;;;1999.90;999.90;;;18.20;99.90;;;;;;5080425;28;20024;-74
2024/02/19 09:19:41;;;;;;;1999.90;999.90;;;18.20;99.90;;;;;;5067010;28;20032;-74
2024/02/19 09:22:07;;;;;;;1999.90;999.90;;;18.10;99.90;;;;;;5073028;28;20119;-74
2024/02/19 09:24:33;;;;;;;1999.90;999.90;;;17.90;99.90;;;;;;5088580;28;20020;-73
2024/02/19 09:26:58;;;;;;;1999.90;999.90;;;17.80;99.90;;;;;;5084487;28;20062;-75
2024/02/19 09:29:24;;;;;;;1999.90;999.90;;;17.50;99.90;;;;;;5077735;28;20506;-74
2024/02/19 09:31:51;;;;;;;1999.90;999.90;;;17.40;99.90;;;;;;5076054;28;20031;-74
2024/02/19 09:34:16;;;;;;;1999.90;999.90;;;17.20;99.90;;;;;;5085619;28;20029;-78
2024/02/19 09:36:46;;;;;;;1999.90;999.90;;;17.00;99.90;;;;;;5085693;28;20039;-76
2024/02/19 09:39:12;;;;;;;1999.90;999.90;;;16.90;99.90;;;;;;5083556;28;20021;-75
2024/02/19 09:41:38;;;;;;;1999.90;999.90;;;16.70;99.90;;;;;;5080712;28;20031;-73
2024/02/19 09:44:04;;;;;;;1999.90;999.90;;;17.00;99.90;;;;;;5082117;28;20016;-77
2024/02/19 09:46:30;;;;;;;1999.90;999.90;;;16.60;99.90;;;;;;5080723;28;20034;-77
2024/02/19 09:48:59;;;;;;;1999.90;999.90;;;16.50;99.90;;;;;;5084393;28;20059;-76
2024/02/19 09:51:27;;;;;;;1999.90;999.90;;;16.20;99.90;;;;;;5081061;28;20035;-75
2024/02/19 09:53:53;;;;;;;1999.90;999.90;;;15.60;99.90;;;;;;5074133;28;20031;-74
2024/02/19 09:56:22;;;;;;;1999.90;999.90;;;14.90;99.90;;;;;;5083391;28;20785;-74
2024/02/19 09:58:50;;;;;;;1999.90;999.90;;;14.30;99.90;;;;;;5085163;28;20039;-76
2024/02/19 10:01:17;;;;;;;1999.90;999.90;;;13.70;99.90;;;;;;5080549;28;20039;-75
2024/02/19 10:03:43;;;;;;;1999.90;999.90;;;13.50;99.90;;;;;;5060986;28;20418;-75
2024/02/19 10:06:09;;;;;;;1999.90;999.90;;;13.40;99.90;;;;;;5093076;28;20445;-75
2024/02/19 10:08:35;;;;;;;1999.90;999.90;;;13.30;99.90;;;;;;5104608;28;20035;-74
2024/02/19 10:11:08;;;;;;;1999.90;999.90;;;13.20;99.90;;;;;;5107471;28;20022;-75
2024/02/19 10:13:34;;;;;;;;;;;12.90;99.90;;;;;;5105583;28;20057;-74
2024/02/19 10:16:00;;;;;;;1999.90;999.90;;;12.60;99.90;;;;;;5106174;28;19918;-75
2024/02/19 10:18:25;;;;;;;1999.90;999.90;;;12.20;99.90;;;;;;5109891;28;20028;-75
2024/02/19 10:20:51;;;;;;;1999.90;999.90;;;12.10;99.90;;;;;;5100806;28;20016;-74
2024/02/19 10:23:20;;;;;;;1999.90;999.90;;;12.00;99.90;;;;;;5094667;28;20031;-74
2024/02/19 10:25:46;;;;;;;1999.90;999.90;;;11.90;99.90;;;;;;5097170;28;20032;-74
2024/02/19 10:28:12;;;;;;;1999.90;999.90;;;11.80;99.90;;;;;;5103583;28;20032;-74
2024/02/19 10:30:39;;;;;;;1999.90;999.90;;;11.60;99.90;;;;;;5105842;28;20095;-74
2024/02/19 10:33:05;;;;;;;1999.90;999.90;;;11.50;99.90;;;;;;5099945;28;20020;-74
2024/02/19 10:35:32;;;;;;;1999.90;999.90;;;11.40;99.90;;;;;;5105509;28;20024;-73
2024/02/19 10:38:01;;;;;;;1999.90;999.90;;;11.40;99.90;;;;;;5105992;28;20028;-75
2024/02/19 10:40:27;;;;;;;1999.90;999.90;;;11.50;99.90;;;;;;5111043;28;20024;-74
2024/02/19 10:42:53;;;;;;;1999.90;999.90;;;11.60;99.90;;;;;;5111844;28;20028;-74
2024/02/19 10:45:22;;;;;;;1999.90;999.90;;;11.60;99.90;;;;;;5113771;28;20043;-74
2024/02/19 10:47:50;;;;;;;1999.90;999.90;;;11.70;99.90;;;;;;5095988;28;20031;-76
2024/02/19 10:50:19;;;;;;;1999.90;999.90;;;11.80;99.90;;;;;;5112018;28;20024;-74
2024/02/19 10:52:46;;;;;;;1999.90;999.90;;;11.80;99.90;;;;;;5098256;28;20032;-74
2024/02/19 10:55:16;;;;;;;1999.90;999.90;;;11.70;99.90;;;;;;5104324;28;20024;-75
2024/02/19 10:57:52;;;;;;;1999.90;999.90;;;11.70;99.90;;;;;;5103870;28;20114;-75
2024/02/19 11:00:25;;;;;;;1999.90;999.90;;;11.80;99.90;;;;;;5109612;28;20034;-74
2024/02/19 11:03:03;;;;;;;1999.90;999.90;;;11.70;99.90;;;;;;5113747;28;20383;-74
2024/02/19 11:05:34;;;;;;;1999.90;999.90;;;11.70;99.90;;;;;;5108798;28;20059;-74
2024/02/19 11:08:03;;;;;;;1999.90;999.90;;;11.70;99.90;;;;;;5094683;28;20031;-75
2024/02/19 11:10:39;;;;;;;1999.90;999.90;;;11.50;99.90;;;;;;5103313;28;20020;-73
2024/02/19 11:13:08;;;;;;;1999.90;999.90;;;11.80;99.90;;;;;;5105973;28;20024;-73
2024/02/19 11:15:41;;;;;;;1999.90;999.90;;;11.80;99.90;;;;;;5101915;28;20111;-76
2024/02/19 11:18:17;;;;;;;1999.90;999.90;;;11.90;99.90;;;;;;5111113;28;20559;-72
2024/02/19 11:20:44;;;;;;;1999.90;999.90;;;11.70;99.90;;;;;;5103010;28;20047;-73
2024/02/19 11:23:11;;;;;;;1999.90;999.90;;;11.70;99.90;;;;;;5109946;28;20101;-74
2024/02/19 11:25:37;;;;;;;1999.90;999.90;;;11.50;99.90;;;;;;5110107;28;20039;-76
2024/02/19 11:28:04;;;;;;;1999.90;999.90;;;11.50;99.90;;;;;;5103591;28;20390;-73
2024/02/19 11:30:33;;;;;;;1999.90;999.90;;;11.60;99.90;;;;;;5096413;28;20035;-73
2024/02/19 11:33:00;;;;;;;1999.90;999.90;;;11.70;99.90;;;;;;5110297;28;20172;-76
2024/02/19 11:35:25;;;;;;;1999.90;999.90;;;11.70;99.90;;;;;;5106466;28;20032;-75
2024/02/19 11:37:51;;;;;;;1999.90;999.90;;;11.80;99.90;;;;;;5110544;28;20028;-75
2024/02/19 11:40:17;;;;;;;1999.90;999.90;;;12.00;99.90;;;;;;5112811;28;20039;-74
2024/02/19 11:42:42;;;;;;;1999.90;999.90;;;12.10;99.90;;;;;;5109629;28;20611;-75
2024/02/19 11:45:09;;;;;;;1999.90;999.90;;;12.00;99.90;;;;;;5123881;28;20028;-77
2024/02/19 11:47:37;;;;;;;1999.90;999.90;;;11.90;99.90;;;;;;5127396;28;20016;-77
2024/02/19 11:50:05;;;;;;;1999.90;999.90;;;11.80;99.90;;;;;;5103893;28;20019;-75
2024/02/19 11:52:31;;;;;;;1999.90;999.90;;;11.70;99.90;;;;;;5102126;28;20401;-74
2024/02/19 11:54:56;;;;;;;1999.90;999.90;;;11.80;99.90;;;;;;5104158;27;20028;-75